sensor_id;sensor_type;location;lat;lon;timestamp;P1;durP1;ratioP1;P2;durP2;ratioP2
79399;SDS011;68856;45.586;10.264;2024-03-23T00:54:20;21.98;;;13.82;;
79399;SDS011;68856;45.586;10.264;2024-03-23T00:56:46;23.88;;;15.35;;
79399;SDS011;68856;45.586;10.264;2024-03-23T00:59:12;20.48;;;13.07;;
79399;SDS011;68856;45.586;10.264;2024-03-23T01:01:39;19.63;;;14.30;;
79399;SDS011;68856;45.586;10.264;2024-03-23T01:04:05;21.25;;;13.15;;
79399;SDS011;68856;45.586;10.264;2024-03-23T01:06:31;19.73;;;13.35;;
79399;SDS011;68856;45.586;10.264;2024-03-23T01:08:57;20.30;;;13.45;;
79399;SDS011;68856;45.586;10.264;2024-03-23T01:11:23;22.02;;;13.68;;
79399;SDS011;68856;45.586;10.264;2024-03-23T01:13:49;21.13;;;13.65;;
79399;SDS011;68856;45.586;10.264;2024-03-23T01:16:15;20.60;;;13.60;;
79399;SDS011;68856;45.586;10.264;2024-03-23T01:18:41;20.52;;;12.95;;
79399;SDS011;68856;45.586;10.264;2024-03-23T01:21:07;20.23;;;13.45;;
79399;SDS011;68856;45.586;10.264;2024-03-23T01:23:33;21.05;;;13.88;;
79399;SDS011;68856;45.586;10.264;2024-03-23T01:25:59;22.35;;;14.18;;
79399;SDS011;68856;45.586;10.264;2024-03-23T01:28:25;21.45;;;13.27;;
79399;SDS011;68856;45.586;10.264;2024-03-23T01:30:51;23.17;;;14.20;;
79399;SDS011;68856;45.586;10.264;2024-03-23T01:33:17;19.45;;;12.77;;
79399;SDS011;68856;45.586;10.264;2024-03-23T01:35:43;22.15;;;14.75;;
79399;SDS011;68856;45.586;10.264;2024-03-23T01:38:09;19.08;;;12.65;;
79399;SDS011;68856;45.586;10.264;2024-03-23T01:40:35;20.55;;;12.73;;
79399;SDS011;68856;45.586;10.264;2024-03-23T01:43:04;19.00;;;12.48;;
79399;SDS011;68856;45.586;10.264;2024-03-23T01:45:31;17.65;;;12.85;;
79399;SDS011;68856;45.586;10.264;2024-03-23T01:47:58;17.90;;;12.23;;
79399;SDS011;68856;45.586;10.264;2024-03-23T01:50:24;19.38;;;13.18;;
79399;SDS011;68856;45.586;10.264;2024-03-23T01:52:50;22.25;;;13.50;;
79399;SDS011;68856;45.586;10.264;2024-03-23T01:55:17;18.90;;;12.50;;
79399;SDS011;68856;45.586;10.264;2024-03-23T01:57:43;19.25;;;12.68;;
79399;SDS011;68856;45.586;10.264;2024-03-23T02:00:09;19.25;;;12.07;;
79399;SDS011;68856;45.586;10.264;2024-03-23T02:02:41;20.05;;;12.57;;
79399;SDS011;68856;45.586;10.264;2024-03-23T02:05:07;20.15;;;13.20;;
79399;SDS011;68856;45.586;10.264;2024-03-23T02:07:33;19.15;;;12.50;;
79399;SDS011;68856;45.586;10.264;2024-03-23T02:09:59;22.75;;;12.77;;
79399;SDS011;68856;45.586;10.264;2024-03-23T02:12:26;20.98;;;12.95;;
79399;SDS011;68856;45.586;10.264;2024-03-23T02:14:52;19.80;;;13.07;;
79399;SDS011;68856;45.586;10.264;2024-03-23T02:17:18;19.42;;;12.43;;
79399;SDS011;68856;45.586;10.264;2024-03-23T02:19:44;20.92;;;13.02;;
79399;SDS011;68856;45.586;10.264;2024-03-23T02:22:11;20.38;;;13.27;;
79399;SDS011;68856;45.586;10.264;2024-03-23T02:24:37;19.08;;;13.10;;
79399;SDS011;68856;45.586;10.264;2024-03-23T02:27:04;18.70;;;12.93;;
79399;SDS011;68856;45.586;10.264;2024-03-23T02:29:30;23.15;;;13.80;;
79399;SDS011;68856;45.586;10.264;2024-03-23T02:31:56;20.02;;;12.60;;
79399;SDS011;68856;45.586;10.264;2024-03-23T02:34:23;21.80;;;13.05;;
79399;SDS011;68856;45.586;10.264;2024-03-23T02:36:49;20.17;;;12.38;;
79399;SDS011;68856;45.586;10.264;2024-03-23T02:39:16;21.55;;;13.70;;
79399;SDS011;68856;45.586;10.264;2024-03-23T02:41:42;22.02;;;14.15;;
79399;SDS011;68856;45.586;10.264;2024-03-23T02:44:08;20.85;;;13.27;;
79399;SDS011;68856;45.586;10.264;2024-03-23T02:46:36;22.85;;;12.75;;
79399;SDS011;68856;45.586;10.264;2024-03-23T02:49:02;19.55;;;12.68;;
79399;SDS011;68856;45.586;10.264;2024-03-23T02:51:29;18.73;;;12.75;;
79399;SDS011;68856;45.586;10.264;2024-03-23T02:53:55;21.15;;;13.48;;
79399;SDS011;68856;45.586;10.264;2024-03-23T02:56:22;16.73;;;11.30;;
79399;SDS011;68856;45.586;10.264;2024-03-23T02:58:48;18.48;;;11.68;;
79399;SDS011;68856;45.586;10.264;2024-03-23T03:01:14;21.08;;;12.25;;
79399;SDS011;68856;45.586;10.264;2024-03-23T03:03:40;21.05;;;12.70;;
79399;SDS011;68856;45.586;10.264;2024-03-23T03:06:06;18.40;;;12.35;;
79399;SDS011;68856;45.586;10.264;2024-03-23T03:08:32;22.65;;;13.18;;
79399;SDS011;68856;45.586;10.264;2024-03-23T03:10:58;21.27;;;13.18;;
79399;SDS011;68856;45.586;10.264;2024-03-23T03:13:24;19.02;;;13.13;;
79399;SDS011;68856;45.586;10.264;2024-03-23T03:15:50;20.33;;;12.65;;
79399;SDS011;68856;45.586;10.264;2024-03-23T03:18:18;20.75;;;12.60;;
79399;SDS011;68856;45.586;10.264;2024-03-23T03:20:44;18.00;;;12.25;;
79399;SDS011;68856;45.586;10.264;2024-03-23T03:23:10;20.58;;;13.20;;
79399;SDS011;68856;45.586;10.264;2024-03-23T03:25:36;20.98;;;13.07;;
79399;SDS011;68856;45.586;10.264;2024-03-23T03:28:02;19.35;;;12.75;;
79399;SDS011;68856;45.586;10.264;2024-03-23T03:30:29;19.65;;;12.70;;
79399;SDS011;68856;45.586;10.264;2024-03-23T03:32:55;20.48;;;13.70;;
79399;SDS011;68856;45.586;10.264;2024-03-23T03:35:21;19.88;;;12.48;;
79399;SDS011;68856;45.586;10.264;2024-03-23T03:37:47;19.48;;;12.30;;
79399;SDS011;68856;45.586;10.264;2024-03-23T03:40:13;20.67;;;13.00;;
79399;SDS011;68856;45.586;10.264;2024-03-23T03:42:40;21.92;;;13.05;;
79399;SDS011;68856;45.586;10.264;2024-03-23T03:45:06;22.83;;;14.57;;
79399;SDS011;68856;45.586;10.264;2024-03-23T03:47:32;23.85;;;14.15;;
79399;SDS011;68856;45.586;10.264;2024-03-23T03:49:58;21.60;;;12.48;;
79399;SDS011;68856;45.586;10.264;2024-03-23T03:52:25;23.25;;;14.40;;
79399;SDS011;68856;45.586;10.264;2024-03-23T03:54:51;22.73;;;14.05;;
79399;SDS011;68856;45.586;10.264;2024-03-23T03:57:17;20.75;;;13.82;;
79399;SDS011;68856;45.586;10.264;2024-03-23T03:59:44;20.30;;;13.68;;
79399;SDS011;68856;45.586;10.264;2024-03-23T04:02:10;24.58;;;13.00;;
79399;SDS011;68856;45.586;10.264;2024-03-23T04:04:36;22.13;;;13.60;;
79399;SDS011;68856;45.586;10.264;2024-03-23T04:07:02;22.10;;;13.88;;
79399;SDS011;68856;45.586;10.264;2024-03-23T04:09:30;21.02;;;13.75;;
79399;SDS011;68856;45.586;10.264;2024-03-23T04:11:56;22.75;;;13.57;;
79399;SDS011;68856;45.586;10.264;2024-03-23T04:14:22;23.92;;;13.50;;
79399;SDS011;68856;45.586;10.264;2024-03-23T04:16:48;24.15;;;14.50;;
79399;SDS011;68856;45.586;10.264;2024-03-23T04:19:14;21.15;;;12.98;;
79399;SDS011;68856;45.586;10.264;2024-03-23T04:21:40;23.50;;;12.85;;
79399;SDS011;68856;45.586;10.264;2024-03-23T04:24:07;21.00;;;12.63;;
79399;SDS011;68856;45.586;10.264;2024-03-23T04:26:42;24.73;;;15.10;;
79399;SDS011;68856;45.586;10.264;2024-03-23T04:29:09;21.75;;;13.70;;
79399;SDS011;68856;45.586;10.264;2024-03-23T04:31:35;22.73;;;14.23;;
79399;SDS011;68856;45.586;10.264;2024-03-23T04:34:01;22.73;;;13.70;;
79399;SDS011;68856;45.586;10.264;2024-03-23T04:36:27;24.67;;;15.02;;
79399;SDS011;68856;45.586;10.264;2024-03-23T04:38:53;23.10;;;14.35;;
79399;SDS011;68856;45.586;10.264;2024-03-23T04:41:19;24.20;;;15.35;;
79399;SDS011;68856;45.586;10.264;2024-03-23T04:43:45;24.02;;;14.23;;
79399;SDS011;68856;45.586;10.264;2024-03-23T04:46:11;24.38;;;15.30;;
79399;SDS011;68856;45.586;10.264;2024-03-23T04:48:38;23.00;;;13.68;;
79399;SDS011;68856;45.586;10.264;2024-03-23T04:51:04;21.90;;;13.95;;
79399;SDS011;68856;45.586;10.264;2024-03-23T04:53:30;22.75;;;13.65;;
79399;SDS011;68856;45.586;10.264;2024-03-23T04:55:56;23.60;;;13.85;;
79399;SDS011;68856;45.586;10.264;2024-03-23T04:58:24;22.60;;;13.18;;
79399;SDS011;68856;45.586;10.264;2024-03-23T05:00:54;20.58;;;13.18;;
79399;SDS011;68856;45.586;10.264;2024-03-23T05:03:20;24.52;;;13.88;;
79399;SDS011;68856;45.586;10.264;2024-03-23T05:05:47;23.77;;;15.07;;
79399;SDS011;68856;45.586;10.264;2024-03-23T05:08:13;21.45;;;13.60;;
79399;SDS011;68856;45.586;10.264;2024-03-23T05:10:40;24.00;;;14.43;;
79399;SDS011;68856;45.586;10.264;2024-03-23T05:13:07;23.75;;;14.73;;
79399;SDS011;68856;45.586;10.264;2024-03-23T05:15:33;24.60;;;13.40;;
79399;SDS011;68856;45.586;10.264;2024-03-23T05:17:59;24.30;;;13.60;;
79399;SDS011;68856;45.586;10.264;2024-03-23T05:20:25;25.25;;;13.80;;
79399;SDS011;68856;45.586;10.264;2024-03-23T05:22:51;22.70;;;14.35;;
79399;SDS011;68856;45.586;10.264;2024-03-23T05:25:17;25.27;;;14.80;;
79399;SDS011;68856;45.586;10.264;2024-03-23T05:27:43;25.55;;;14.43;;
79399;SDS011;68856;45.586;10.264;2024-03-23T05:30:09;23.95;;;14.02;;
79399;SDS011;68856;45.586;10.264;2024-03-23T05:32:36;21.58;;;14.23;;
79399;SDS011;68856;45.586;10.264;2024-03-23T05:35:03;24.60;;;15.32;;
79399;SDS011;68856;45.586;10.264;2024-03-23T05:37:29;29.98;;;14.48;;
79399;SDS011;68856;45.586;10.264;2024-03-23T05:39:58;24.27;;;15.90;;
79399;SDS011;68856;45.586;10.264;2024-03-23T05:42:24;26.35;;;15.07;;
79399;SDS011;68856;45.586;10.264;2024-03-23T05:44:51;25.08;;;16.17;;
79399;SDS011;68856;45.586;10.264;2024-03-23T05:47:17;23.92;;;15.27;;
79399;SDS011;68856;45.586;10.264;2024-03-23T05:49:44;22.67;;;14.25;;
79399;SDS011;68856;45.586;10.264;2024-03-23T05:52:11;25.63;;;15.93;;
79399;SDS011;68856;45.586;10.264;2024-03-23T05:54:37;30.42;;;16.65;;
79399;SDS011;68856;45.586;10.264;2024-03-23T05:57:03;24.15;;;15.30;;
79399;SDS011;68856;45.586;10.264;2024-03-23T05:59:32;25.77;;;14.43;;
79399;SDS011;68856;45.586;10.264;2024-03-23T06:01:58;25.10;;;15.10;;
79399;SDS011;68856;45.586;10.264;2024-03-23T06:04:24;24.95;;;14.93;;
79399;SDS011;68856;45.586;10.264;2024-03-23T06:06:51;24.00;;;15.27;;
79399;SDS011;68856;45.586;10.264;2024-03-23T06:09:17;28.10;;;15.18;;
79399;SDS011;68856;45.586;10.264;2024-03-23T06:11:44;24.90;;;15.93;;
79399;SDS011;68856;45.586;10.264;2024-03-23T06:14:10;29.80;;;16.90;;
79399;SDS011;68856;45.586;10.264;2024-03-23T06:16:36;29.50;;;16.30;;
79399;SDS011;68856;45.586;10.264;2024-03-23T06:19:02;25.70;;;15.57;;
79399;SDS011;68856;45.586;10.264;2024-03-23T06:21:31;26.77;;;17.33;;
79399;SDS011;68856;45.586;10.264;2024-03-23T06:23:58;27.38;;;17.15;;
79399;SDS011;68856;45.586;10.264;2024-03-23T06:26:24;31.15;;;17.20;;
79399;SDS011;68856;45.586;10.264;2024-03-23T06:28:50;28.20;;;16.38;;
79399;SDS011;68856;45.586;10.264;2024-03-23T06:31:16;28.15;;;16.50;;
79399;SDS011;68856;45.586;10.264;2024-03-23T06:33:43;27.52;;;17.10;;
79399;SDS011;68856;45.586;10.264;2024-03-23T06:36:09;32.40;;;18.50;;
79399;SDS011;68856;45.586;10.264;2024-03-23T06:38:36;38.92;;;19.77;;
79399;SDS011;68856;45.586;10.264;2024-03-23T06:41:03;34.15;;;19.70;;
79399;SDS011;68856;45.586;10.264;2024-03-23T06:43:29;33.90;;;19.40;;
79399;SDS011;68856;45.586;10.264;2024-03-23T06:45:55;26.33;;;18.60;;
79399;SDS011;68856;45.586;10.264;2024-03-23T06:48:21;30.42;;;19.60;;
79399;SDS011;68856;45.586;10.264;2024-03-23T06:50:48;31.65;;;18.45;;
79399;SDS011;68856;45.586;10.264;2024-03-23T06:53:14;35.00;;;20.42;;
79399;SDS011;68856;45.586;10.264;2024-03-23T06:55:40;32.78;;;19.23;;
79399;SDS011;68856;45.586;10.264;2024-03-23T06:58:07;29.17;;;19.48;;
79399;SDS011;68856;45.586;10.264;2024-03-23T07:00:33;33.63;;;20.40;;
79399;SDS011;68856;45.586;10.264;2024-03-23T07:02:59;31.02;;;21.42;;
79399;SDS011;68856;45.586;10.264;2024-03-23T07:05:25;30.80;;;19.33;;
79399;SDS011;68856;45.586;10.264;2024-03-23T07:07:51;30.05;;;19.77;;
79399;SDS011;68856;45.586;10.264;2024-03-23T07:10:17;30.60;;;20.05;;
79399;SDS011;68856;45.586;10.264;2024-03-23T07:12:44;29.70;;;19.58;;
79399;SDS011;68856;45.586;10.264;2024-03-23T07:15:10;31.30;;;21.15;;
79399;SDS011;68856;45.586;10.264;2024-03-23T07:17:36;35.83;;;21.27;;
79399;SDS011;68856;45.586;10.264;2024-03-23T07:20:02;32.53;;;21.33;;
79399;SDS011;68856;45.586;10.264;2024-03-23T07:22:31;32.63;;;20.63;;
79399;SDS011;68856;45.586;10.264;2024-03-23T07:25:01;34.53;;;21.80;;
79399;SDS011;68856;45.586;10.264;2024-03-23T07:27:27;36.35;;;20.40;;
79399;SDS011;68856;45.586;10.264;2024-03-23T07:29:53;29.38;;;20.35;;
79399;SDS011;68856;45.586;10.264;2024-03-23T07:32:20;31.02;;;20.58;;
79399;SDS011;68856;45.586;10.264;2024-03-23T07:34:46;34.28;;;21.52;;
79399;SDS011;68856;45.586;10.264;2024-03-23T07:37:12;30.85;;;21.08;;
79399;SDS011;68856;45.586;10.264;2024-03-23T07:39:41;33.33;;;23.10;;
79399;SDS011;68856;45.586;10.264;2024-03-23T07:42:07;32.97;;;20.80;;
79399;SDS011;68856;45.586;10.264;2024-03-23T07:44:33;36.03;;;22.70;;
79399;SDS011;68856;45.586;10.264;2024-03-23T07:47:00;36.63;;;22.38;;
79399;SDS011;68856;45.586;10.264;2024-03-23T07:49:26;35.10;;;22.02;;
79399;SDS011;68856;45.586;10.264;2024-03-23T07:51:53;38.20;;;23.00;;
79399;SDS011;68856;45.586;10.264;2024-03-23T07:54:19;35.50;;;22.45;;
79399;SDS011;68856;45.586;10.264;2024-03-23T07:56:45;30.45;;;21.77;;
79399;SDS011;68856;45.586;10.264;2024-03-23T07:59:11;34.20;;;22.63;;
79399;SDS011;68856;45.586;10.264;2024-03-23T08:01:37;33.80;;;22.95;;
79399;SDS011;68856;45.586;10.264;2024-03-23T08:04:03;30.23;;;21.63;;
79399;SDS011;68856;45.586;10.264;2024-03-23T08:06:29;31.98;;;21.35;;
79399;SDS011;68856;45.586;10.264;2024-03-23T08:08:55;32.20;;;21.30;;
79399;SDS011;68856;45.586;10.264;2024-03-23T08:11:25;30.17;;;19.52;;
79399;SDS011;68856;45.586;10.264;2024-03-23T08:13:52;27.77;;;18.55;;
79399;SDS011;68856;45.586;10.264;2024-03-23T08:16:18;27.60;;;18.17;;
79399;SDS011;68856;45.586;10.264;2024-03-23T08:18:44;28.67;;;18.98;;
79399;SDS011;68856;45.586;10.264;2024-03-23T08:21:10;27.60;;;17.85;;
79399;SDS011;68856;45.586;10.264;2024-03-23T08:23:36;31.23;;;17.40;;
79399;SDS011;68856;45.586;10.264;2024-03-23T08:26:09;25.40;;;16.27;;
79399;SDS011;68856;45.586;10.264;2024-03-23T08:28:36;25.55;;;15.93;;
79399;SDS011;68856;45.586;10.264;2024-03-23T08:31:09;24.27;;;15.70;;
79399;SDS011;68856;45.586;10.264;2024-03-23T08:33:35;26.92;;;16.73;;
79399;SDS011;68856;45.586;10.264;2024-03-23T08:36:03;22.05;;;16.70;;
79399;SDS011;68856;45.586;10.264;2024-03-23T08:38:29;24.30;;;16.83;;
79399;SDS011;68856;45.586;10.264;2024-03-23T08:40:56;25.73;;;15.65;;
79399;SDS011;68856;45.586;10.264;2024-03-23T08:43:22;22.38;;;14.85;;
79399;SDS011;68856;45.586;10.264;2024-03-23T08:45:48;23.98;;;15.55;;
79399;SDS011;68856;45.586;10.264;2024-03-23T08:48:14;23.95;;;15.50;;
79399;SDS011;68856;45.586;10.264;2024-03-23T08:50:40;20.67;;;15.75;;
79399;SDS011;68856;45.586;10.264;2024-03-23T08:53:06;20.23;;;14.02;;
79399;SDS011;68856;45.586;10.264;2024-03-23T08:55:32;19.05;;;13.52;;
79399;SDS011;68856;45.586;10.264;2024-03-23T08:57:59;21.73;;;13.93;;
79399;SDS011;68856;45.586;10.264;2024-03-23T09:00:25;22.35;;;15.07;;
79399;SDS011;68856;45.586;10.264;2024-03-23T09:02:51;20.10;;;14.10;;
79399;SDS011;68856;45.586;10.264;2024-03-23T09:05:18;20.33;;;13.55;;
79399;SDS011;68856;45.586;10.264;2024-03-23T09:07:44;20.23;;;13.80;;
79399;SDS011;68856;45.586;10.264;2024-03-23T09:10:10;18.33;;;14.18;;
79399;SDS011;68856;45.586;10.264;2024-03-23T09:12:37;18.23;;;13.43;;
79399;SDS011;68856;45.586;10.264;2024-03-23T09:15:03;24.50;;;15.57;;
79399;SDS011;68856;45.586;10.264;2024-03-23T09:17:29;20.55;;;14.65;;
79399;SDS011;68856;45.586;10.264;2024-03-23T09:19:55;23.45;;;16.48;;
79399;SDS011;68856;45.586;10.264;2024-03-23T09:22:21;25.77;;;16.63;;
79399;SDS011;68856;45.586;10.264;2024-03-23T09:24:47;26.15;;;16.50;;
79399;SDS011;68856;45.586;10.264;2024-03-23T09:27:13;24.80;;;16.63;;
79399;SDS011;68856;45.586;10.264;2024-03-23T09:29:39;24.38;;;18.40;;
79399;SDS011;68856;45.586;10.264;2024-03-23T09:32:05;33.40;;;18.55;;
79399;SDS011;68856;45.586;10.264;2024-03-23T09:34:31;26.27;;;19.08;;
79399;SDS011;68856;45.586;10.264;2024-03-23T09:36:57;25.98;;;18.75;;
79399;SDS011;68856;45.586;10.264;2024-03-23T09:39:23;25.83;;;18.23;;
79399;SDS011;68856;45.586;10.264;2024-03-23T09:41:49;24.60;;;17.83;;
79399;SDS011;68856;45.586;10.264;2024-03-23T09:44:15;21.90;;;15.70;;
79399;SDS011;68856;45.586;10.264;2024-03-23T09:46:41;22.67;;;15.85;;
79399;SDS011;68856;45.586;10.264;2024-03-23T09:49:08;21.90;;;16.13;;
79399;SDS011;68856;45.586;10.264;2024-03-23T09:51:37;25.85;;;18.20;;
79399;SDS011;68856;45.586;10.264;2024-03-23T09:54:03;22.67;;;16.65;;
79399;SDS011;68856;45.586;10.264;2024-03-23T09:56:29;24.75;;;16.77;;
79399;SDS011;68856;45.586;10.264;2024-03-23T09:59:02;22.83;;;16.17;;
79399;SDS011;68856;45.586;10.264;2024-03-23T10:01:31;25.17;;;16.50;;
79399;SDS011;68856;45.586;10.264;2024-03-23T10:03:57;22.67;;;17.15;;
79399;SDS011;68856;45.586;10.264;2024-03-23T10:06:23;22.75;;;17.02;;
79399;SDS011;68856;45.586;10.264;2024-03-23T10:08:52;25.08;;;17.23;;
79399;SDS011;68856;45.586;10.264;2024-03-23T10:11:19;24.40;;;16.15;;
79399;SDS011;68856;45.586;10.264;2024-03-23T10:13:46;23.15;;;15.32;;
79399;SDS011;68856;45.586;10.264;2024-03-23T10:16:12;21.85;;;15.63;;
79399;SDS011;68856;45.586;10.264;2024-03-23T10:18:46;21.80;;;16.80;;
79399;SDS011;68856;45.586;10.264;2024-03-23T10:21:14;19.38;;;14.85;;
79399;SDS011;68856;45.586;10.264;2024-03-23T10:23:41;20.77;;;13.88;;
79399;SDS011;68856;45.586;10.264;2024-03-23T10:26:14;20.90;;;14.07;;
79399;SDS011;68856;45.586;10.264;2024-03-23T10:29:02;19.98;;;13.90;;
79399;SDS011;68856;45.586;10.264;2024-03-23T10:31:33;21.65;;;15.38;;
79399;SDS011;68856;45.586;10.264;2024-03-23T10:34:02;23.73;;;15.98;;
79399;SDS011;68856;45.586;10.264;2024-03-23T10:36:29;23.05;;;15.68;;
79399;SDS011;68856;45.586;10.264;2024-03-23T10:38:55;22.75;;;15.63;;
79399;SDS011;68856;45.586;10.264;2024-03-23T10:41:26;19.25;;;13.60;;
79399;SDS011;68856;45.586;10.264;2024-03-23T10:43:52;22.05;;;15.95;;
79399;SDS011;68856;45.586;10.264;2024-03-23T10:46:18;20.70;;;15.30;;
79399;SDS011;68856;45.586;10.264;2024-03-23T10:48:44;22.48;;;16.05;;
79399;SDS011;68856;45.586;10.264;2024-03-23T10:51:10;19.83;;;15.05;;
79399;SDS011;68856;45.586;10.264;2024-03-23T10:53:36;20.63;;;15.02;;
79399;SDS011;68856;45.586;10.264;2024-03-23T10:56:03;21.95;;;16.52;;
79399;SDS011;68856;45.586;10.264;2024-03-23T10:58:33;22.90;;;16.85;;
79399;SDS011;68856;45.586;10.264;2024-03-23T11:01:02;21.38;;;15.15;;
79399;SDS011;68856;45.586;10.264;2024-03-23T11:03:32;22.60;;;15.30;;
79399;SDS011;68856;45.586;10.264;2024-03-23T11:06:01;22.38;;;16.15;;
79399;SDS011;68856;45.586;10.264;2024-03-23T11:13:38;24.70;;;17.13;;
79399;SDS011;68856;45.586;10.264;2024-03-23T11:16:17;24.13;;;16.38;;
79399;SDS011;68856;45.586;10.264;2024-03-23T11:18:47;23.05;;;17.17;;
79399;SDS011;68856;45.586;10.264;2024-03-23T11:24:14;23.95;;;17.40;;
79399;SDS011;68856;45.586;10.264;2024-03-23T11:26:40;22.52;;;17.45;;
79399;SDS011;68856;45.586;10.264;2024-03-23T11:29:10;23.80;;;16.83;;
79399;SDS011;68856;45.586;10.264;2024-03-23T11:31:37;24.48;;;17.73;;
79399;SDS011;68856;45.586;10.264;2024-03-23T11:34:05;22.02;;;16.45;;
79399;SDS011;68856;45.586;10.264;2024-03-23T11:36:32;17.45;;;13.27;;
79399;SDS011;68856;45.586;10.264;2024-03-23T11:38:58;18.73;;;14.20;;
79399;SDS011;68856;45.586;10.264;2024-03-23T11:41:24;21.52;;;15.20;;
79399;SDS011;68856;45.586;10.264;2024-03-23T11:43:50;18.83;;;13.98;;
79399;SDS011;68856;45.586;10.264;2024-03-23T11:46:22;17.77;;;14.30;;
79399;SDS011;68856;45.586;10.264;2024-03-23T11:48:49;17.40;;;13.25;;
79399;SDS011;68856;45.586;10.264;2024-03-23T11:51:18;21.35;;;14.10;;
79399;SDS011;68856;45.586;10.264;2024-03-23T11:53:45;18.23;;;13.38;;
79399;SDS011;68856;45.586;10.264;2024-03-23T11:56:11;17.40;;;12.82;;
79399;SDS011;68856;45.586;10.264;2024-03-23T11:58:37;18.63;;;13.65;;
79399;SDS011;68856;45.586;10.264;2024-03-23T12:01:04;15.32;;;12.90;;
79399;SDS011;68856;45.586;10.264;2024-03-23T12:03:30;17.17;;;12.77;;
79399;SDS011;68856;45.586;10.264;2024-03-23T12:05:59;18.83;;;12.50;;
79399;SDS011;68856;45.586;10.264;2024-03-23T12:11:10;15.98;;;12.05;;
79399;SDS011;68856;45.586;10.264;2024-03-23T12:13:37;16.50;;;12.45;;
79399;SDS011;68856;45.586;10.264;2024-03-23T12:18:35;19.45;;;12.98;;
79399;SDS011;68856;45.586;10.264;2024-03-23T12:21:01;14.98;;;11.40;;
79399;SDS011;68856;45.586;10.264;2024-03-23T12:23:28;14.95;;;11.57;;
79399;SDS011;68856;45.586;10.264;2024-03-23T12:25:54;17.83;;;13.57;;
79399;SDS011;68856;45.586;10.264;2024-03-23T12:28:20;18.23;;;13.05;;
79399;SDS011;68856;45.586;10.264;2024-03-23T12:30:46;17.30;;;12.07;;
79399;SDS011;68856;45.586;10.264;2024-03-23T12:33:12;16.40;;;12.45;;
79399;SDS011;68856;45.586;10.264;2024-03-23T12:35:38;16.63;;;12.00;;
79399;SDS011;68856;45.586;10.264;2024-03-23T12:38:04;18.60;;;12.43;;
79399;SDS011;68856;45.586;10.264;2024-03-23T12:40:30;16.73;;;12.50;;
79399;SDS011;68856;45.586;10.264;2024-03-23T12:42:56;15.80;;;12.82;;
79399;SDS011;68856;45.586;10.264;2024-03-23T12:45:22;16.88;;;12.32;;
79399;SDS011;68856;45.586;10.264;2024-03-23T12:47:48;18.63;;;13.25;;
79399;SDS011;68856;45.586;10.264;2024-03-23T12:50:15;18.13;;;12.63;;
79399;SDS011;68856;45.586;10.264;2024-03-23T12:52:41;18.00;;;12.70;;
79399;SDS011;68856;45.586;10.264;2024-03-23T12:55:07;17.13;;;13.10;;
79399;SDS011;68856;45.586;10.264;2024-03-23T12:57:33;16.70;;;12.30;;
79399;SDS011;68856;45.586;10.264;2024-03-23T12:59:59;15.65;;;11.10;;
79399;SDS011;68856;45.586;10.264;2024-03-23T13:02:25;16.05;;;12.43;;
79399;SDS011;68856;45.586;10.264;2024-03-23T13:04:52;16.80;;;12.63;;
79399;SDS011;68856;45.586;10.264;2024-03-23T13:07:19;18.27;;;14.55;;
79399;SDS011;68856;45.586;10.264;2024-03-23T13:09:45;19.50;;;14.23;;
79399;SDS011;68856;45.586;10.264;2024-03-23T13:12:11;17.98;;;14.32;;
79399;SDS011;68856;45.586;10.264;2024-03-23T13:14:38;18.63;;;13.98;;
79399;SDS011;68856;45.586;10.264;2024-03-23T13:17:04;19.40;;;14.30;;
79399;SDS011;68856;45.586;10.264;2024-03-23T13:19:31;20.70;;;13.07;;
79399;SDS011;68856;45.586;10.264;2024-03-23T13:21:58;20.00;;;14.68;;
79399;SDS011;68856;45.586;10.264;2024-03-23T13:24:25;17.33;;;13.77;;
79399;SDS011;68856;45.586;10.264;2024-03-23T13:26:51;23.45;;;15.80;;
79399;SDS011;68856;45.586;10.264;2024-03-23T13:29:17;21.85;;;15.30;;
79399;SDS011;68856;45.586;10.264;2024-03-23T13:31:44;19.35;;;14.65;;
79399;SDS011;68856;45.586;10.264;2024-03-23T13:34:10;19.45;;;15.80;;
79399;SDS011;68856;45.586;10.264;2024-03-23T13:36:36;17.80;;;14.35;;
79399;SDS011;68856;45.586;10.264;2024-03-23T13:39:03;18.38;;;14.27;;
79399;SDS011;68856;45.586;10.264;2024-03-23T13:41:35;16.63;;;13.90;;
79399;SDS011;68856;45.586;10.264;2024-03-23T13:44:02;17.77;;;14.43;;
79399;SDS011;68856;45.586;10.264;2024-03-23T13:46:28;19.02;;;14.82;;
79399;SDS011;68856;45.586;10.264;2024-03-23T13:48:54;17.42;;;15.00;;
79399;SDS011;68856;45.586;10.264;2024-03-23T13:51:23;17.50;;;14.43;;
79399;SDS011;68856;45.586;10.264;2024-03-23T13:53:52;19.58;;;14.23;;
79399;SDS011;68856;45.586;10.264;2024-03-23T13:56:18;17.40;;;14.60;;
79399;SDS011;68856;45.586;10.264;2024-03-23T13:58:44;18.80;;;15.05;;
79399;SDS011;68856;45.586;10.264;2024-03-23T14:01:12;16.52;;;13.70;;
79399;SDS011;68856;45.586;10.264;2024-03-23T14:03:38;17.50;;;14.43;;
79399;SDS011;68856;45.586;10.264;2024-03-23T14:06:04;21.10;;;15.30;;
79399;SDS011;68856;45.586;10.264;2024-03-23T14:08:32;17.83;;;14.38;;
79399;SDS011;68856;45.586;10.264;2024-03-23T14:11:00;20.38;;;14.93;;
79399;SDS011;68856;45.586;10.264;2024-03-23T14:13:27;17.60;;;14.18;;
79399;SDS011;68856;45.586;10.264;2024-03-23T14:15:54;18.58;;;14.00;;
79399;SDS011;68856;45.586;10.264;2024-03-23T14:18:20;20.88;;;14.30;;
79399;SDS011;68856;45.586;10.264;2024-03-23T14:20:47;19.40;;;14.00;;
79399;SDS011;68856;45.586;10.264;2024-03-23T14:23:14;16.52;;;13.80;;
79399;SDS011;68856;45.586;10.264;2024-03-23T14:25:40;16.25;;;13.50;;
79399;SDS011;68856;45.586;10.264;2024-03-23T14:28:06;17.60;;;13.50;;
79399;SDS011;68856;45.586;10.264;2024-03-23T14:30:38;19.15;;;13.55;;
79399;SDS011;68856;45.586;10.264;2024-03-23T14:33:04;16.98;;;12.50;;
79399;SDS011;68856;45.586;10.264;2024-03-23T14:35:30;21.60;;;14.45;;
79399;SDS011;68856;45.586;10.264;2024-03-23T14:37:58;16.50;;;12.52;;
79399;SDS011;68856;45.586;10.264;2024-03-23T14:40:24;17.48;;;13.80;;
79399;SDS011;68856;45.586;10.264;2024-03-23T14:42:53;17.52;;;13.82;;
79399;SDS011;68856;45.586;10.264;2024-03-23T14:45:20;19.90;;;13.35;;
79399;SDS011;68856;45.586;10.264;2024-03-23T14:47:46;19.95;;;13.27;;
79399;SDS011;68856;45.586;10.264;2024-03-23T14:50:12;17.70;;;14.30;;
79399;SDS011;68856;45.586;10.264;2024-03-23T14:52:41;19.20;;;14.75;;
79399;SDS011;68856;45.586;10.264;2024-03-23T14:55:07;19.83;;;13.75;;
79399;SDS011;68856;45.586;10.264;2024-03-23T14:57:36;19.25;;;14.70;;
79399;SDS011;68856;45.586;10.264;2024-03-23T15:00:05;22.67;;;15.55;;
79399;SDS011;68856;45.586;10.264;2024-03-23T15:02:31;18.52;;;14.55;;
79399;SDS011;68856;45.586;10.264;2024-03-23T15:04:58;19.85;;;13.60;;
79399;SDS011;68856;45.586;10.264;2024-03-23T15:07:24;21.50;;;14.70;;
79399;SDS011;68856;45.586;10.264;2024-03-23T15:09:50;20.90;;;14.48;;
79399;SDS011;68856;45.586;10.264;2024-03-23T15:12:16;17.98;;;14.05;;